sensor_id;sensor_type;location;lat;lon;timestamp;P1;durP1;ratioP1;P2;durP2;ratioP2
22646;SDS011;11490;42.726;23.268;2022-07-01T00:01:59;6.45;;;5.05;;
22646;SDS011;11490;42.726;23.268;2022-07-01T00:04:24;5.90;;;4.57;;
22646;SDS011;11490;42.726;23.268;2022-07-01T00:06:52;8.38;;;5.18;;
22646;SDS011;11490;42.726;23.268;2022-07-01T00:09:21;6.40;;;4.90;;
22646;SDS011;11490;42.726;23.268;2022-07-01T00:11:46;7.47;;;4.43;;
22646;SDS011;11490;42.726;23.268;2022-07-01T00:14:12;8.88;;;5.35;;
22646;SDS011;11490;42.726;23.268;2022-07-01T00:16:37;7.78;;;4.57;;
22646;SDS011;11490;42.726;23.268;2022-07-01T00:19:03;6.47;;;4.78;;
22646;SDS011;11490;42.726;23.268;2022-07-01T00:21:29;7.30;;;4.55;;
22646;SDS011;11490;42.726;23.268;2022-07-01T00:23:55;5.85;;;4.38;;
22646;SDS011;11490;42.726;23.268;2022-07-01T00:26:21;6.90;;;4.25;;
22646;SDS011;11490;42.726;23.268;2022-07-01T00:28:46;7.72;;;4.53;;
22646;SDS011;11490;42.726;23.268;2022-07-01T00:31:12;6.38;;;4.60;;
22646;SDS011;11490;42.726;23.268;2022-07-01T00:33:37;8.82;;;5.18;;
22646;SDS011;11490;42.726;23.268;2022-07-01T00:36:03;5.78;;;4.47;;
22646;SDS011;11490;42.726;23.268;2022-07-01T00:38:28;10.73;;;5.03;;
22646;SDS011;11490;42.726;23.268;2022-07-01T00:40:54;7.93;;;4.35;;
22646;SDS011;11490;42.726;23.268;2022-07-01T00:43:20;6.38;;;4.53;;
22646;SDS011;11490;42.726;23.268;2022-07-01T00:45:49;10.65;;;5.22;;
22646;SDS011;11490;42.726;23.268;2022-07-01T00:48:16;5.97;;;4.60;;
22646;SDS011;11490;42.726;23.268;2022-07-01T00:50:43;7.22;;;4.55;;
22646;SDS011;11490;42.726;23.268;2022-07-01T00:53:09;8.20;;;4.05;;
22646;SDS011;11490;42.726;23.268;2022-07-01T00:55:35;9.48;;;4.90;;
22646;SDS011;11490;42.726;23.268;2022-07-01T00:58:00;6.75;;;4.90;;
22646;SDS011;11490;42.726;23.268;2022-07-01T01:00:26;5.80;;;4.60;;
22646;SDS011;11490;42.726;23.268;2022-07-01T01:02:52;7.03;;;5.20;;
22646;SDS011;11490;42.726;23.268;2022-07-01T01:05:18;8.57;;;5.93;;
22646;SDS011;11490;42.726;23.268;2022-07-01T01:07:45;6.28;;;4.43;;
22646;SDS011;11490;42.726;23.268;2022-07-01T01:10:12;8.15;;;4.82;;
22646;SDS011;11490;42.726;23.268;2022-07-01T01:12:39;5.38;;;4.30;;
22646;SDS011;11490;42.726;23.268;2022-07-01T01:15:05;6.10;;;4.65;;
22646;SDS011;11490;42.726;23.268;2022-07-01T01:17:31;7.07;;;4.93;;
22646;SDS011;11490;42.726;23.268;2022-07-01T01:19:56;8.77;;;5.10;;
22646;SDS011;11490;42.726;23.268;2022-07-01T01:22:22;8.43;;;5.07;;
22646;SDS011;11490;42.726;23.268;2022-07-01T01:24:47;9.60;;;4.68;;
22646;SDS011;11490;42.726;23.268;2022-07-01T01:27:13;7.57;;;4.85;;
22646;SDS011;11490;42.726;23.268;2022-07-01T01:29:39;6.63;;;4.82;;
22646;SDS011;11490;42.726;23.268;2022-07-01T01:32:05;8.80;;;4.80;;
22646;SDS011;11490;42.726;23.268;2022-07-01T01:34:32;6.57;;;4.72;;
22646;SDS011;11490;42.726;23.268;2022-07-01T01:36:59;7.70;;;4.65;;
22646;SDS011;11490;42.726;23.268;2022-07-01T01:39:24;7.00;;;5.15;;
22646;SDS011;11490;42.726;23.268;2022-07-01T01:41:50;6.68;;;4.65;;
22646;SDS011;11490;42.726;23.268;2022-07-01T01:44:15;7.28;;;5.20;;
22646;SDS011;11490;42.726;23.268;2022-07-01T01:46:41;7.18;;;4.93;;
22646;SDS011;11490;42.726;23.268;2022-07-01T01:49:07;6.10;;;4.65;;
22646;SDS011;11490;42.726;23.268;2022-07-01T01:51:35;6.80;;;4.45;;
22646;SDS011;11490;42.726;23.268;2022-07-01T01:54:00;8.65;;;5.75;;
22646;SDS011;11490;42.726;23.268;2022-07-01T01:56:26;8.80;;;5.47;;
22646;SDS011;11490;42.726;23.268;2022-07-01T01:58:52;8.80;;;5.20;;
22646;SDS011;11490;42.726;23.268;2022-07-01T02:01:19;9.52;;;5.45;;
22646;SDS011;11490;42.726;23.268;2022-07-01T02:03:46;7.13;;;4.80;;
22646;SDS011;11490;42.726;23.268;2022-07-01T02:06:13;7.78;;;5.13;;
22646;SDS011;11490;42.726;23.268;2022-07-01T02:08:40;7.47;;;4.65;;
22646;SDS011;11490;42.726;23.268;2022-07-01T02:11:07;6.90;;;5.13;;
22646;SDS011;11490;42.726;23.268;2022-07-01T02:13:33;7.28;;;5.03;;
22646;SDS011;11490;42.726;23.268;2022-07-01T02:15:59;7.88;;;4.88;;
22646;SDS011;11490;42.726;23.268;2022-07-01T02:18:24;9.30;;;4.35;;
22646;SDS011;11490;42.726;23.268;2022-07-01T02:20:50;7.18;;;5.07;;
22646;SDS011;11490;42.726;23.268;2022-07-01T02:23:16;6.13;;;4.45;;
22646;SDS011;11490;42.726;23.268;2022-07-01T02:25:42;10.55;;;4.90;;
22646;SDS011;11490;42.726;23.268;2022-07-01T02:28:08;7.40;;;4.47;;
22646;SDS011;11490;42.726;23.268;2022-07-01T02:30:34;7.07;;;4.97;;
22646;SDS011;11490;42.726;23.268;2022-07-01T02:33:03;6.13;;;3.95;;
22646;SDS011;11490;42.726;23.268;2022-07-01T02:35:30;7.18;;;5.18;;
22646;SDS011;11490;42.726;23.268;2022-07-01T02:37:56;6.03;;;4.50;;
22646;SDS011;11490;42.726;23.268;2022-07-01T02:40:22;6.53;;;4.70;;
22646;SDS011;11490;42.726;23.268;2022-07-01T02:42:47;6.78;;;4.72;;
22646;SDS011;11490;42.726;23.268;2022-07-01T02:45:12;6.82;;;4.70;;
22646;SDS011;11490;42.726;23.268;2022-07-01T02:47:38;7.03;;;5.15;;
22646;SDS011;11490;42.726;23.268;2022-07-01T02:50:06;9.63;;;5.07;;
22646;SDS011;11490;42.726;23.268;2022-07-01T02:52:37;7.03;;;4.78;;
22646;SDS011;11490;42.726;23.268;2022-07-01T02:55:04;8.23;;;4.95;;
22646;SDS011;11490;42.726;23.268;2022-07-01T02:57:31;8.75;;;5.22;;
22646;SDS011;11490;42.726;23.268;2022-07-01T02:59:57;9.35;;;5.05;;
22646;SDS011;11490;42.726;23.268;2022-07-01T03:02:22;8.00;;;5.00;;
22646;SDS011;11490;42.726;23.268;2022-07-01T03:04:48;8.68;;;5.75;;
22646;SDS011;11490;42.726;23.268;2022-07-01T03:07:16;10.63;;;5.18;;
22646;SDS011;11490;42.726;23.268;2022-07-01T03:09:42;8.57;;;5.82;;
22646;SDS011;11490;42.726;23.268;2022-07-01T03:12:08;7.45;;;5.63;;
22646;SDS011;11490;42.726;23.268;2022-07-01T03:17:20;9.60;;;5.05;;
22646;SDS011;11490;42.726;23.268;2022-07-01T03:19:46;7.20;;;5.00;;
22646;SDS011;11490;42.726;23.268;2022-07-01T03:22:12;8.18;;;5.68;;
22646;SDS011;11490;42.726;23.268;2022-07-01T03:24:37;8.77;;;5.32;;
22646;SDS011;11490;42.726;23.268;2022-07-01T03:27:03;7.43;;;5.65;;
22646;SDS011;11490;42.726;23.268;2022-07-01T03:29:28;7.78;;;4.88;;
22646;SDS011;11490;42.726;23.268;2022-07-01T03:31:54;8.50;;;4.95;;
22646;SDS011;11490;42.726;23.268;2022-07-01T03:34:19;11.57;;;5.75;;
22646;SDS011;11490;42.726;23.268;2022-07-01T03:36:45;6.95;;;5.55;;
22646;SDS011;11490;42.726;23.268;2022-07-01T03:39:10;9.50;;;5.80;;
22646;SDS011;11490;42.726;23.268;2022-07-01T03:41:35;12.20;;;5.60;;
22646;SDS011;11490;42.726;23.268;2022-07-01T03:44:01;9.93;;;5.40;;
22646;SDS011;11490;42.726;23.268;2022-07-01T03:46:26;6.55;;;4.85;;
22646;SDS011;11490;42.726;23.268;2022-07-01T03:48:55;8.90;;;5.45;;
22646;SDS011;11490;42.726;23.268;2022-07-01T03:51:20;8.77;;;5.10;;
22646;SDS011;11490;42.726;23.268;2022-07-01T03:53:46;7.15;;;5.45;;
22646;SDS011;11490;42.726;23.268;2022-07-01T03:56:30;7.80;;;4.93;;
22646;SDS011;11490;42.726;23.268;2022-07-01T03:58:55;10.02;;;5.35;;
22646;SDS011;11490;42.726;23.268;2022-07-01T04:01:21;7.05;;;5.72;;
22646;SDS011;11490;42.726;23.268;2022-07-01T04:03:46;9.93;;;6.15;;
22646;SDS011;11490;42.726;23.268;2022-07-01T04:06:11;8.43;;;5.43;;
22646;SDS011;11490;42.726;23.268;2022-07-01T04:08:37;11.23;;;6.10;;
22646;SDS011;11490;42.726;23.268;2022-07-01T04:11:02;9.65;;;5.47;;
22646;SDS011;11490;42.726;23.268;2022-07-01T04:13:33;8.20;;;5.88;;
22646;SDS011;11490;42.726;23.268;2022-07-01T04:15:59;7.63;;;5.28;;
22646;SDS011;11490;42.726;23.268;2022-07-01T04:18:25;8.55;;;5.00;;
22646;SDS011;11490;42.726;23.268;2022-07-01T04:20:52;8.65;;;6.00;;
22646;SDS011;11490;42.726;23.268;2022-07-01T04:23:36;9.60;;;6.07;;
22646;SDS011;11490;42.726;23.268;2022-07-01T04:26:02;8.55;;;6.03;;
22646;SDS011;11490;42.726;23.268;2022-07-01T04:28:28;8.95;;;6.18;;
22646;SDS011;11490;42.726;23.268;2022-07-01T04:30:53;10.60;;;6.60;;
22646;SDS011;11490;42.726;23.268;2022-07-01T04:33:19;7.88;;;5.45;;
22646;SDS011;11490;42.726;23.268;2022-07-01T04:35:44;7.95;;;5.85;;
22646;SDS011;11490;42.726;23.268;2022-07-01T04:38:09;9.10;;;5.72;;
22646;SDS011;11490;42.726;23.268;2022-07-01T04:40:35;10.57;;;6.03;;
22646;SDS011;11490;42.726;23.268;2022-07-01T04:43:00;12.27;;;5.47;;
22646;SDS011;11490;42.726;23.268;2022-07-01T04:45:26;7.45;;;4.88;;
22646;SDS011;11490;42.726;23.268;2022-07-01T04:47:51;7.70;;;5.60;;
22646;SDS011;11490;42.726;23.268;2022-07-01T04:50:17;10.20;;;6.57;;
22646;SDS011;11490;42.726;23.268;2022-07-01T04:52:42;9.38;;;5.85;;
22646;SDS011;11490;42.726;23.268;2022-07-01T04:55:07;10.40;;;5.63;;
22646;SDS011;11490;42.726;23.268;2022-07-01T04:57:33;7.55;;;5.13;;
22646;SDS011;11490;42.726;23.268;2022-07-01T04:59:59;8.23;;;4.93;;
22646;SDS011;11490;42.726;23.268;2022-07-01T05:02:24;7.13;;;5.47;;
22646;SDS011;11490;42.726;23.268;2022-07-01T05:04:50;10.73;;;5.45;;
22646;SDS011;11490;42.726;23.268;2022-07-01T05:07:15;6.72;;;4.70;;
22646;SDS011;11490;42.726;23.268;2022-07-01T05:09:56;8.45;;;4.85;;
22646;SDS011;11490;42.726;23.268;2022-07-01T05:12:24;10.35;;;5.25;;
22646;SDS011;11490;42.726;23.268;2022-07-01T05:14:49;13.00;;;5.18;;
22646;SDS011;11490;42.726;23.268;2022-07-01T05:17:15;6.30;;;4.72;;
22646;SDS011;11490;42.726;23.268;2022-07-01T05:19:41;6.10;;;4.57;;
22646;SDS011;11490;42.726;23.268;2022-07-01T05:22:25;7.20;;;4.90;;
22646;SDS011;11490;42.726;23.268;2022-07-01T05:24:50;6.88;;;4.95;;
22646;SDS011;11490;42.726;23.268;2022-07-01T05:27:16;8.85;;;5.00;;
22646;SDS011;11490;42.726;23.268;2022-07-01T05:29:41;7.38;;;4.93;;
22646;SDS011;11490;42.726;23.268;2022-07-01T05:32:07;10.07;;;5.47;;
22646;SDS011;11490;42.726;23.268;2022-07-01T05:34:32;6.72;;;5.38;;
22646;SDS011;11490;42.726;23.268;2022-07-01T05:36:58;7.20;;;4.47;;
22646;SDS011;11490;42.726;23.268;2022-07-01T05:39:23;6.85;;;4.45;;
22646;SDS011;11490;42.726;23.268;2022-07-01T05:41:50;7.72;;;5.30;;
22646;SDS011;11490;42.726;23.268;2022-07-01T05:44:15;10.55;;;5.35;;
22646;SDS011;11490;42.726;23.268;2022-07-01T05:46:41;10.18;;;6.10;;
22646;SDS011;11490;42.726;23.268;2022-07-01T05:49:06;7.15;;;5.13;;
22646;SDS011;11490;42.726;23.268;2022-07-01T05:51:32;9.38;;;4.80;;
22646;SDS011;11490;42.726;23.268;2022-07-01T05:53:58;5.95;;;4.57;;
22646;SDS011;11490;42.726;23.268;2022-07-01T05:56:24;11.25;;;5.18;;
22646;SDS011;11490;42.726;23.268;2022-07-01T05:58:50;7.63;;;5.18;;
22646;SDS011;11490;42.726;23.268;2022-07-01T06:01:16;9.80;;;5.00;;
22646;SDS011;11490;42.726;23.268;2022-07-01T06:03:41;7.55;;;4.53;;
22646;SDS011;11490;42.726;23.268;2022-07-01T06:06:07;5.95;;;4.72;;
22646;SDS011;11490;42.726;23.268;2022-07-01T06:08:32;7.15;;;4.70;;
22646;SDS011;11490;42.726;23.268;2022-07-01T06:10:58;6.53;;;4.60;;
22646;SDS011;11490;42.726;23.268;2022-07-01T06:13:24;6.18;;;4.57;;
22646;SDS011;11490;42.726;23.268;2022-07-01T06:15:49;6.95;;;4.75;;
22646;SDS011;11490;42.726;23.268;2022-07-01T06:18:14;7.63;;;5.43;;
22646;SDS011;11490;42.726;23.268;2022-07-01T06:20:40;10.63;;;4.88;;
22646;SDS011;11490;42.726;23.268;2022-07-01T06:23:05;7.93;;;4.65;;
22646;SDS011;11490;42.726;23.268;2022-07-01T06:25:31;8.20;;;4.78;;
22646;SDS011;11490;42.726;23.268;2022-07-01T06:27:56;13.52;;;4.97;;
22646;SDS011;11490;42.726;23.268;2022-07-01T06:30:21;7.53;;;4.85;;
22646;SDS011;11490;42.726;23.268;2022-07-01T06:32:47;7.35;;;4.47;;
22646;SDS011;11490;42.726;23.268;2022-07-01T06:35:12;7.25;;;4.72;;
22646;SDS011;11490;42.726;23.268;2022-07-01T06:37:38;7.35;;;4.45;;
22646;SDS011;11490;42.726;23.268;2022-07-01T06:40:03;6.85;;;4.63;;
22646;SDS011;11490;42.726;23.268;2022-07-01T06:42:30;9.52;;;4.80;;
22646;SDS011;11490;42.726;23.268;2022-07-01T06:44:56;8.65;;;4.60;;
22646;SDS011;11490;42.726;23.268;2022-07-01T06:47:21;5.85;;;4.13;;
22646;SDS011;11490;42.726;23.268;2022-07-01T06:49:47;6.45;;;4.68;;
22646;SDS011;11490;42.726;23.268;2022-07-01T06:52:13;10.52;;;4.40;;
22646;SDS011;11490;42.726;23.268;2022-07-01T06:54:39;8.25;;;4.85;;
22646;SDS011;11490;42.726;23.268;2022-07-01T06:57:05;11.63;;;4.28;;
22646;SDS011;11490;42.726;23.268;2022-07-01T06:59:31;8.95;;;4.53;;
22646;SDS011;11490;42.726;23.268;2022-07-01T07:01:57;5.18;;;4.53;;
22646;SDS011;11490;42.726;23.268;2022-07-01T07:04:22;27.10;;;4.60;;
22646;SDS011;11490;42.726;23.268;2022-07-01T07:09:38;10.93;;;4.90;;
22646;SDS011;11490;42.726;23.268;2022-07-01T07:12:03;7.10;;;4.43;;
22646;SDS011;11490;42.726;23.268;2022-07-01T07:14:29;6.65;;;4.22;;
22646;SDS011;11490;42.726;23.268;2022-07-01T07:16:54;6.18;;;3.63;;
22646;SDS011;11490;42.726;23.268;2022-07-01T07:19:23;10.57;;;4.65;;
22646;SDS011;11490;42.726;23.268;2022-07-01T07:21:48;6.40;;;3.47;;
22646;SDS011;11490;42.726;23.268;2022-07-01T07:24:14;6.53;;;4.18;;
22646;SDS011;11490;42.726;23.268;2022-07-01T07:26:39;4.95;;;3.40;;
22646;SDS011;11490;42.726;23.268;2022-07-01T07:29:07;7.10;;;4.07;;
22646;SDS011;11490;42.726;23.268;2022-07-01T07:31:35;9.00;;;4.43;;
22646;SDS011;11490;42.726;23.268;2022-07-01T07:34:00;9.90;;;3.65;;
22646;SDS011;11490;42.726;23.268;2022-07-01T07:40:27;5.20;;;3.53;;
22646;SDS011;11490;42.726;23.268;2022-07-01T07:42:56;7.38;;;3.38;;
22646;SDS011;11490;42.726;23.268;2022-07-01T07:45:28;6.57;;;3.80;;
22646;SDS011;11490;42.726;23.268;2022-07-01T07:48:04;5.85;;;3.78;;
22646;SDS011;11490;42.726;23.268;2022-07-01T07:50:33;4.47;;;3.70;;
22646;SDS011;11490;42.726;23.268;2022-07-01T07:52:59;5.03;;;3.30;;
22646;SDS011;11490;42.726;23.268;2022-07-01T07:55:24;11.88;;;4.60;;
22646;SDS011;11490;42.726;23.268;2022-07-01T07:57:50;6.30;;;3.92;;
22646;SDS011;11490;42.726;23.268;2022-07-01T08:00:16;7.55;;;3.95;;
22646;SDS011;11490;42.726;23.268;2022-07-01T08:02:42;7.53;;;3.65;;
22646;SDS011;11490;42.726;23.268;2022-07-01T08:05:08;7.93;;;3.90;;
22646;SDS011;11490;42.726;23.268;2022-07-01T08:07:38;7.18;;;4.15;;
22646;SDS011;11490;42.726;23.268;2022-07-01T08:10:05;5.60;;;3.78;;
22646;SDS011;11490;42.726;23.268;2022-07-01T08:12:33;5.10;;;3.80;;
22646;SDS011;11490;42.726;23.268;2022-07-01T08:14:59;5.93;;;3.70;;
22646;SDS011;11490;42.726;23.268;2022-07-01T08:17:25;7.25;;;3.15;;
22646;SDS011;11490;42.726;23.268;2022-07-01T08:19:51;4.50;;;3.20;;
22646;SDS011;11490;42.726;23.268;2022-07-01T08:22:16;5.13;;;3.30;;
22646;SDS011;11490;42.726;23.268;2022-07-01T08:24:42;7.43;;;3.60;;
22646;SDS011;11490;42.726;23.268;2022-07-01T08:27:11;6.13;;;3.72;;
22646;SDS011;11490;42.726;23.268;2022-07-01T08:29:57;6.30;;;4.10;;
22646;SDS011;11490;42.726;23.268;2022-07-01T08:32:22;6.38;;;3.72;;
22646;SDS011;11490;42.726;23.268;2022-07-01T08:34:51;5.22;;;3.67;;
22646;SDS011;11490;42.726;23.268;2022-07-01T08:37:16;7.03;;;3.58;;
22646;SDS011;11490;42.726;23.268;2022-07-01T08:39:42;5.72;;;3.65;;
22646;SDS011;11490;42.726;23.268;2022-07-01T08:42:07;6.45;;;4.07;;
22646;SDS011;11490;42.726;23.268;2022-07-01T08:44:33;6.03;;;3.60;;
22646;SDS011;11490;42.726;23.268;2022-07-01T08:46:59;7.40;;;3.40;;
22646;SDS011;11490;42.726;23.268;2022-07-01T08:49:24;5.25;;;3.75;;
22646;SDS011;11490;42.726;23.268;2022-07-01T08:51:50;6.70;;;3.53;;
22646;SDS011;11490;42.726;23.268;2022-07-01T08:54:15;8.20;;;3.75;;
22646;SDS011;11490;42.726;23.268;2022-07-01T08:56:41;4.60;;;3.35;;
22646;SDS011;11490;42.726;23.268;2022-07-01T08:59:07;5.93;;;3.47;;
22646;SDS011;11490;42.726;23.268;2022-07-01T09:01:36;6.40;;;3.20;;
22646;SDS011;11490;42.726;23.268;2022-07-01T09:04:20;9.48;;;3.72;;
22646;SDS011;11490;42.726;23.268;2022-07-01T09:06:46;7.57;;;3.45;;
22646;SDS011;11490;42.726;23.268;2022-07-01T09:09:20;5.88;;;3.65;;
22646;SDS011;11490;42.726;23.268;2022-07-01T09:11:52;8.63;;;4.05;;
22646;SDS011;11490;42.726;23.268;2022-07-01T09:14:28;5.78;;;3.25;;
22646;SDS011;11490;42.726;23.268;2022-07-01T09:16:57;5.18;;;3.33;;
22646;SDS011;11490;42.726;23.268;2022-07-01T09:19:24;6.53;;;3.67;;
22646;SDS011;11490;42.726;23.268;2022-07-01T09:21:53;5.40;;;3.70;;
22646;SDS011;11490;42.726;23.268;2022-07-01T09:24:47;5.45;;;3.88;;
22646;SDS011;11490;42.726;23.268;2022-07-01T09:27:12;6.32;;;3.10;;
22646;SDS011;11490;42.726;23.268;2022-07-01T09:29:43;4.68;;;3.47;;
22646;SDS011;11490;42.726;23.268;2022-07-01T09:32:11;8.63;;;3.75;;
22646;SDS011;11490;42.726;23.268;2022-07-01T09:34:44;7.45;;;4.13;;
22646;SDS011;11490;42.726;23.268;2022-07-01T09:37:14;5.85;;;3.70;;
22646;SDS011;11490;42.726;23.268;2022-07-01T09:39:44;7.35;;;4.63;;
22646;SDS011;11490;42.726;23.268;2022-07-01T09:42:11;6.40;;;4.47;;
22646;SDS011;11490;42.726;23.268;2022-07-01T09:44:56;5.50;;;3.85;;
22646;SDS011;11490;42.726;23.268;2022-07-01T09:47:24;5.68;;;3.85;;
22646;SDS011;11490;42.726;23.268;2022-07-01T09:49:54;6.00;;;3.00;;
22646;SDS011;11490;42.726;23.268;2022-07-01T09:52:20;12.82;;;3.90;;
22646;SDS011;11490;42.726;23.268;2022-07-01T09:54:47;5.20;;;3.58;;
22646;SDS011;11490;42.726;23.268;2022-07-01T09:57:14;5.68;;;3.10;;
22646;SDS011;11490;42.726;23.268;2022-07-01T09:59:50;6.78;;;3.97;;
22646;SDS011;11490;42.726;23.268;2022-07-01T10:02:19;4.20;;;3.00;;
22646;SDS011;11490;42.726;23.268;2022-07-01T10:04:58;6.53;;;3.28;;
22646;SDS011;11490;42.726;23.268;2022-07-01T10:13:05;9.82;;;3.20;;
22646;SDS011;11490;42.726;23.268;2022-07-01T10:15:33;4.40;;;3.28;;
22646;SDS011;11490;42.726;23.268;2022-07-01T10:17:59;6.05;;;2.83;;
22646;SDS011;11490;42.726;23.268;2022-07-01T10:20:26;4.80;;;3.67;;
22646;SDS011;11490;42.726;23.268;2022-07-01T10:23:03;4.57;;;3.65;;
22646;SDS011;11490;42.726;23.268;2022-07-01T10:25:49;4.43;;;3.10;;
22646;SDS011;11490;42.726;23.268;2022-07-01T10:28:23;6.00;;;3.28;;
22646;SDS011;11490;42.726;23.268;2022-07-01T10:33:30;4.07;;;3.05;;
22646;SDS011;11490;42.726;23.268;2022-07-01T10:36:16;3.78;;;2.67;;
22646;SDS011;11490;42.726;23.268;2022-07-01T10:41:38;3.80;;;2.50;;
22646;SDS011;11490;42.726;23.268;2022-07-01T10:44:06;9.07;;;2.85;;
22646;SDS011;11490;42.726;23.268;2022-07-01T10:50:37;4.18;;;3.00;;
22646;SDS011;11490;42.726;23.268;2022-07-01T10:53:11;6.35;;;2.75;;
22646;SDS011;11490;42.726;23.268;2022-07-01T10:55:47;6.03;;;3.13;;
22646;SDS011;11490;42.726;23.268;2022-07-01T11:01:36;5.68;;;3.35;;
22646;SDS011;11490;42.726;23.268;2022-07-01T11:04:07;7.07;;;3.05;;
22646;SDS011;11490;42.726;23.268;2022-07-01T11:06:33;5.18;;;3.03;;
22646;SDS011;11490;42.726;23.268;2022-07-01T11:09:11;6.80;;;3.35;;
22646;SDS011;11490;42.726;23.268;2022-07-01T11:11:52;5.03;;;3.20;;
22646;SDS011;11490;42.726;23.268;2022-07-01T11:14:31;4.97;;;2.90;;
22646;SDS011;11490;42.726;23.268;2022-07-01T11:17:15;5.53;;;2.92;;
22646;SDS011;11490;42.726;23.268;2022-07-01T11:19:59;4.22;;;3.05;;
22646;SDS011;11490;42.726;23.268;2022-07-01T11:22:54;7.28;;;3.63;;
22646;SDS011;11490;42.726;23.268;2022-07-01T11:25:20;5.45;;;3.13;;
22646;SDS011;11490;42.726;23.268;2022-07-01T11:27:56;6.65;;;4.03;;
22646;SDS011;11490;42.726;23.268;2022-07-01T11:30:22;6.00;;;3.50;;
22646;SDS011;11490;42.726;23.268;2022-07-01T11:33:09;4.68;;;3.10;;
22646;SDS011;11490;42.726;23.268;2022-07-01T11:35:36;4.95;;;3.20;;
22646;SDS011;11490;42.726;23.268;2022-07-01T11:38:21;4.75;;;2.90;;
22646;SDS011;11490;42.726;23.268;2022-07-01T11:41:10;4.75;;;2.85;;
22646;SDS011;11490;42.726;23.268;2022-07-01T11:43:54;4.72;;;3.22;;
22646;SDS011;11490;42.726;23.268;2022-07-01T11:46:32;4.53;;;3.50;;
22646;SDS011;11490;42.726;23.268;2022-07-01T11:49:12;4.93;;;3.00;;
22646;SDS011;11490;42.726;23.268;2022-07-01T11:51:58;5.28;;;3.05;;
22646;SDS011;11490;42.726;23.268;2022-07-01T11:55:08;3.85;;;2.70;;
22646;SDS011;11490;42.726;23.268;2022-07-01T11:57:44;6.43;;;3.30;;
22646;SDS011;11490;42.726;23.268;2022-07-01T12:00:32;4.05;;;2.78;;
22646;SDS011;11490;42.726;23.268;2022-07-01T12:03:03;4.28;;;2.60;;
22646;SDS011;11490;42.726;23.268;2022-07-01T12:05:46;5.63;;;3.25;;
22646;SDS011;11490;42.726;23.268;2022-07-01T12:08:14;3.60;;;2.65;;
22646;SDS011;11490;42.726;23.268;2022-07-01T12:11:00;4.45;;;3.10;;
22646;SDS011;11490;42.726;23.268;2022-07-01T12:13:36;6.75;;;2.85;;
22646;SDS011;11490;42.726;23.268;2022-07-01T12:16:24;3.15;;;2.28;;
22646;SDS011;11490;42.726;23.268;2022-07-01T12:19:26;3.75;;;2.58;;
22646;SDS011;11490;42.726;23.268;2022-07-01T12:22:13;7.95;;;2.83;;
22646;SDS011;11490;42.726;23.268;2022-07-01T12:25:07;3.42;;;2.17;;
22646;SDS011;11490;42.726;23.268;2022-07-01T12:27:55;9.63;;;2.85;;
22646;SDS011;11490;42.726;23.268;2022-07-01T12:30:23;4.05;;;2.65;;
22646;SDS011;11490;42.726;23.268;2022-07-01T12:33:08;5.90;;;3.33;;
22646;SDS011;11490;42.726;23.268;2022-07-01T12:35:47;6.00;;;2.47;;
22646;SDS011;11490;42.726;23.268;2022-07-01T12:38:20;6.22;;;3.17;;
22646;SDS011;11490;42.726;23.268;2022-07-01T12:40:56;5.88;;;3.55;;
22646;SDS011;11490;42.726;23.268;2022-07-01T12:43:34;8.32;;;3.40;;
22646;SDS011;11490;42.726;23.268;2022-07-01T12:46:03;3.38;;;2.33;;
22646;SDS011;11490;42.726;23.268;2022-07-01T12:48:28;4.40;;;2.50;;
22646;SDS011;11490;42.726;23.268;2022-07-01T12:51:04;4.00;;;2.67;;
22646;SDS011;11490;42.726;23.268;2022-07-01T12:53:30;6.05;;;2.90;;
22646;SDS011;11490;42.726;23.268;2022-07-01T12:55:56;4.95;;;2.70;;
22646;SDS011;11490;42.726;23.268;2022-07-01T12:58:23;3.38;;;2.25;;
22646;SDS011;11490;42.726;23.268;2022-07-01T13:00:54;4.60;;;2.53;;
22646;SDS011;11490;42.726;23.268;2022-07-01T13:03:25;3.58;;;1.92;;
22646;SDS011;11490;42.726;23.268;2022-07-01T13:05:54;6.50;;;3.55;;
22646;SDS011;11490;42.726;23.268;2022-07-01T13:08:24;5.18;;;3.40;;
22646;SDS011;11490;42.726;23.268;2022-07-01T13:10:49;4.47;;;3.03;;
22646;SDS011;11490;42.726;23.268;2022-07-01T13:13:16;10.30;;;2.92;;
22646;SDS011;11490;42.726;23.268;2022-07-01T13:15:44;3.95;;;2.33;;
22646;SDS011;11490;42.726;23.268;2022-07-01T13:18:10;8.65;;;3.10;;
22646;SDS011;11490;42.726;23.268;2022-07-01T13:20:39;7.00;;;2.95;;
22646;SDS011;11490;42.726;23.268;2022-07-01T13:23:05;5.20;;;2.83;;
22646;SDS011;11490;42.726;23.268;2022-07-01T13:25:30;5.88;;;3.55;;
22646;SDS011;11490;42.726;23.268;2022-07-01T13:27:56;5.35;;;3.72;;
22646;SDS011;11490;42.726;23.268;2022-07-01T13:30:22;6.57;;;3.90;;
22646;SDS011;11490;42.726;23.268;2022-07-01T13:32:48;4.03;;;2.70;;
22646;SDS011;11490;42.726;23.268;2022-07-01T13:35:17;4.20;;;2.90;;
22646;SDS011;11490;42.726;23.268;2022-07-01T13:37:43;4.53;;;3.10;;
22646;SDS011;11490;42.726;23.268;2022-07-01T13:40:09;7.55;;;3.60;;
22646;SDS011;11490;42.726;23.268;2022-07-01T13:42:35;4.80;;;2.97;;
22646;SDS011;11490;42.726;23.268;2022-07-01T13:45:01;5.82;;;3.70;;
22646;SDS011;11490;42.726;23.268;2022-07-01T13:47:27;19.08;;;12.63;;
22646;SDS011;11490;42.726;23.268;2022-07-01T13:49:53;11.60;;;6.00;;
22646;SDS011;11490;42.726;23.268;2022-07-01T13:52:18;9.10;;;4.97;;
22646;SDS011;11490;42.726;23.268;2022-07-01T13:54:43;5.72;;;4.60;;
22646;SDS011;11490;42.726;23.268;2022-07-01T13:57:09;13.52;;;5.40;;
22646;SDS011;11490;42.726;23.268;2022-07-01T13:59:34;6.63;;;4.35;;
22646;SDS011;11490;42.726;23.268;2022-07-01T14:02:00;6.15;;;4.40;;
22646;SDS011;11490;42.726;23.268;2022-07-01T14:04:25;7.05;;;3.47;;
22646;SDS011;11490;42.726;23.268;2022-07-01T14:06:51;4.93;;;3.30;;
22646;SDS011;11490;42.726;23.268;2022-07-01T14:09:17;7.35;;;4.13;;
22646;SDS011;11490;42.726;23.268;2022-07-01T14:11:42;5.05;;;3.10;;
22646;SDS011;11490;42.726;23.268;2022-07-01T14:14:09;5.25;;;3.53;;
22646;SDS011;11490;42.726;23.268;2022-07-01T14:16:35;6.50;;;3.83;;
22646;SDS011;11490;42.726;23.268;2022-07-01T14:19:01;6.28;;;4.20;;
22646;SDS011;11490;42.726;23.268;2022-07-01T14:21:26;6.15;;;3.80;;
22646;SDS011;11490;42.726;23.268;2022-07-01T14:23:51;7.03;;;3.83;;
22646;SDS011;11490;42.726;23.268;2022-07-01T14:26:17;6.63;;;3.70;;
22646;SDS011;11490;42.726;23.268;2022-07-01T14:28:42;5.88;;;3.33;;
22646;SDS011;11490;42.726;23.268;2022-07-01T14:31:08;5.03;;;3.58;;
22646;SDS011;11490;42.726;23.268;2022-07-01T14:33:34;7.00;;;3.40;;
22646;SDS011;11490;42.726;23.268;2022-07-01T14:36:00;5.88;;;3.42;;
22646;SDS011;11490;42.726;23.268;2022-07-01T14:38:25;4.88;;;3.45;;
22646;SDS011;11490;42.726;23.268;2022-07-01T14:40:51;4.45;;;3.08;;
22646;SDS011;11490;42.726;23.268;2022-07-01T14:43:16;3.95;;;3.22;;
22646;SDS011;11490;42.726;23.268;2022-07-01T14:45:42;6.53;;;3.47;;
22646;SDS011;11490;42.726;23.268;2022-07-01T14:48:08;5.70;;;4.00;;
22646;SDS011;11490;42.726;23.268;2022-07-01T14:50:34;5.65;;;3.72;;
22646;SDS011;11490;42.726;23.268;2022-07-01T14:53:00;4.82;;;3.30;;
22646;SDS011;11490;42.726;23.268;2022-07-01T14:55:29;5.55;;;3.00;;
22646;SDS011;11490;42.726;23.268;2022-07-01T14:57:55;4.88;;;3.25;;
22646;SDS011;11490;42.726;23.268;2022-07-01T15:00:20;9.27;;;4.38;;
22646;SDS011;11490;42.726;23.268;2022-07-01T15:02:46;5.70;;;3.67;;
22646;SDS011;11490;42.726;23.268;2022-07-01T15:05:12;8.52;;;4.78;;
22646;SDS011;11490;42.726;23.268;2022-07-01T15:07:38;7.75;;;3.60;;
22646;SDS011;11490;42.726;23.268;2022-07-01T15:10:04;6.47;;;4.55;;